Cape Borda, Australia
Current Conditions -  °F | °C
As of 4:00 AM on Friday 30 Jan 2015 (Local Time) from YPAD Reporting Station
Clear Clear  
Wind Chill: 64°   Ceiling: Unl
Heat Index: 64°   Visibility: 6mi
Dew Point: 41°   Wind: 14mph
Humidity: 42%   Direction: 120°ESE
Pressure: 29.94"   Gusts: NA
Location:  35.77°S, 136.76°E
Report Text: YPAD 291800Z 12012KT CAVOK 18/05 Q1014 FM1800 MOD TURB BLW 5000FT
Loading
Personal Weather Stations






























Interactive Weather Map New forecast layout! Learn more

10-Day Weather Forecast

Advertisements
Track Severe Weather on mobile